Airfield :







YOU CAN JOIN US ON...

 
LOGIN :

Register | Disclaimer

   EN    FR    IT 

 









Legend :    VFR   Marginal VFR   IFR   Intensive IFR   Very Intensive IFR
Visi :
Ceiling :
>= 8 km
>= 3000ft
5 to 8 km
1000 to 3000 ft
1500m to 5 km
500 to 1000 ft
800 to 1500m
200 to 500 ft
< 800m
< 200 ft
Symbols :   Thunderstorms  Fog  Heavy snow  Heavy precipitations  Wind > 20 kt







- Airport Elevation : 129 ft
- IATA code : YVP


CYVP - Kuujjuak

CURRENT METAR :
  • 202000Z 16013G19KT 15SM SCT030 BKN038 OVC085 21/14 A2929 RMK CU4SC1AS3 SLP923 DENSITY ALT 1600FT

EXPIRED METARs :
  • 201900Z 15015KT 15SM VCSH SCT025 BKN035 BKN055 OVC090 19/14 A2930 RMK CU4SC1SC2AC1 SLP924 DENSITY ALT 1400FT
  • 201800Z 16012KT 15SM BKN026 BKN035 BKN075 19/14 A2930 RMK CU6SC1AC1 AC TR SLP926 DENSITY ALT 1400FT

TAF TAF CYVP
Valid from the 20 at 18:00 until the 21 at 06:00 UTC


201741Z 2018/2106 15012G22KT P6SM BKN030 OVC080
TEMPO 2018/2024 P6SM -SHRA BKN020 OVC040
BECMG 2021/2023 23006KT
FM210000 23006KT 5SM -SHRA BR SCT008 OVC020 RMK NXT FCST BY 210000Z
CZUL FIR / North America



MET'MAP, your aeronautical weather chart ! - Copyright ORBIFLY December 2007 - Disclaimer

ORBIFLY MET'MAP TEAM :

Programming & Development : Alexandra Zaïnal
Concept & Development : Baudouin d'Aumeries
Co-Development & Prog : Marc-Olivier Méhu
Technical & hardware support : Manuel Goepfert

Contact : metmap@orbifly.com




SOURCES & CREDITS :

   NOAA